createdAt,value
2019-03-17T00:11:03.789Z,2.40
2019-03-17T00:13:32.682Z,2.50
2019-03-17T00:16:01.580Z,2.50
2019-03-17T00:18:30.569Z,2.12
2019-03-17T00:20:59.392Z,2.47
2019-03-17T00:23:28.416Z,2.12
2019-03-17T00:25:57.551Z,2.10
2019-03-17T00:28:26.552Z,2.10
2019-03-17T00:30:55.534Z,2.12
2019-03-17T00:33:24.528Z,2.60
2019-03-17T00:35:53.413Z,2.70
2019-03-17T00:38:22.309Z,2.67
2019-03-17T00:40:51.299Z,2.65
2019-03-17T00:43:20.195Z,2.58
2019-03-17T00:45:49.187Z,2.52
2019-03-17T00:48:18.180Z,2.40
2019-03-17T00:50:49.020Z,2.10
2019-03-17T00:53:17.704Z,2.45
2019-03-17T00:55:46.694Z,2.52
2019-03-17T00:58:15.570Z,2.85
2019-03-17T01:00:44.483Z,3.80
2019-03-17T01:03:13.445Z,4.87
2019-03-17T01:05:42.359Z,4.47
2019-03-17T01:08:11.243Z,5.08
2019-03-17T01:10:40.346Z,7.75
2019-03-17T01:13:09.343Z,5.08
2019-03-17T01:15:38.331Z,3.37
2019-03-17T01:18:07.423Z,3.45
2019-03-17T01:20:41.540Z,2.62
2019-03-17T01:23:10.535Z,2.67
2019-03-17T01:25:39.526Z,2.65
2019-03-17T01:28:08.519Z,2.75
2019-03-17T01:30:37.404Z,2.65
2019-03-17T01:33:06.297Z,3.17
2019-03-17T01:35:35.193Z,2.22
2019-03-17T01:38:04.186Z,2.22
2019-03-17T01:40:33.067Z,2.45
2019-03-17T01:43:01.962Z,2.75
2019-03-17T01:45:30.955Z,3.35
2019-03-17T01:47:59.854Z,2.95
2019-03-17T01:50:28.720Z,3.22
2019-03-17T01:52:57.839Z,2.45
2019-03-17T01:55:26.834Z,2.58
2019-03-17T01:57:55.711Z,2.10
2019-03-17T02:00:24.818Z,2.45
2019-03-17T02:02:53.812Z,2.10
2019-03-17T02:05:22.804Z,2.20
2019-03-17T02:07:51.795Z,1.98
2019-03-17T02:10:20.797Z,1.65
2019-03-17T02:12:49.782Z,1.82
2019-03-17T02:15:18.774Z,1.62
2019-03-17T02:17:47.768Z,1.80
2019-03-17T02:20:17.067Z,1.90
2019-03-17T02:22:46.061Z,2.98
2019-03-17T02:25:14.946Z,3.10
2019-03-17T02:27:44.967Z,3.60
2019-03-17T02:30:14.258Z,5.78
2019-03-17T02:32:43.277Z,5.58
2019-03-17T02:35:12.256Z,7.03
2019-03-17T02:37:41.261Z,7.10
2019-03-17T02:40:10.240Z,5.72
2019-03-17T02:42:39.237Z,3.47
2019-03-17T02:45:09.917Z,3.92
2019-03-17T02:47:38.856Z,2.77
2019-03-17T02:50:09.570Z,2.77
2019-03-17T02:52:38.592Z,2.55
2019-03-17T02:55:08.704Z,2.62
2019-03-17T02:57:37.594Z,2.45
2019-03-17T03:00:09.332Z,2.33
2019-03-17T03:02:38.244Z,2.62
2019-03-17T03:05:08.577Z,2.77
2019-03-17T03:07:37.560Z,2.90
2019-03-17T03:10:06.787Z,3.02
2019-03-17T03:12:35.753Z,3.08
2019-03-17T03:15:06.908Z,3.62
2019-03-17T03:17:35.894Z,2.85
2019-03-17T03:20:07.011Z,3.12
2019-03-17T03:22:36.027Z,3.65
2019-03-17T03:25:07.169Z,2.65
2019-03-17T03:27:36.161Z,3.72
2019-03-17T03:30:13.758Z,3.30
2019-03-17T03:32:42.817Z,2.47
2019-03-17T03:35:12.080Z,2.72
2019-03-17T03:37:41.122Z,2.90
2019-03-17T03:40:11.901Z,3.20
2019-03-17T03:42:40.877Z,2.55
2019-03-17T03:45:11.422Z,3.42
2019-03-17T03:47:40.396Z,3.17
2019-03-17T03:50:12.337Z,3.33
2019-03-17T03:52:41.249Z,3.20
2019-03-17T03:55:10.325Z,3.35
2019-03-17T03:57:39.233Z,3.35
2019-03-17T04:00:11.091Z,3.22
2019-03-17T04:02:40.026Z,3.77
2019-03-17T04:05:09.183Z,4.28
2019-03-17T04:07:38.178Z,7.83
2019-03-17T04:10:09.320Z,8.73
2019-03-17T04:12:38.227Z,5.72
2019-03-17T04:15:09.457Z,4.80
2019-03-17T04:17:38.448Z,4.55
2019-03-17T04:20:09.494Z,4.67
2019-03-17T04:22:38.377Z,5.62
2019-03-17T04:25:07.579Z,5.17
2019-03-17T04:27:36.573Z,5.37
2019-03-17T04:30:10.338Z,4.33
2019-03-17T04:32:40.395Z,4.05
2019-03-17T04:35:09.425Z,4.35
2019-03-17T04:37:38.394Z,3.98
2019-03-17T04:40:08.626Z,3.90
2019-03-17T04:42:37.599Z,3.77
2019-03-17T04:45:07.551Z,3.35
2019-03-17T04:47:36.506Z,3.87
2019-03-17T04:50:06.916Z,3.98
2019-03-17T04:52:35.821Z,3.92
2019-03-17T04:55:06.043Z,3.70
2019-03-17T04:57:34.937Z,3.25
2019-03-17T05:00:05.159Z,4.35
2019-03-17T05:02:34.150Z,3.95
2019-03-17T05:05:03.143Z,4.22
2019-03-17T05:07:32.134Z,4.40
2019-03-17T05:10:01.129Z,4.58
2019-03-17T05:12:30.121Z,5.22
2019-03-17T05:14:58.936Z,4.50
2019-03-17T05:17:27.901Z,4.50
2019-03-17T05:19:56.793Z,5.40
2019-03-17T05:22:25.787Z,4.62
2019-03-17T05:24:54.780Z,4.35
2019-03-17T05:27:23.773Z,3.25
2019-03-17T05:29:52.768Z,3.35
2019-03-17T05:32:21.759Z,4.33
2019-03-17T05:34:51.751Z,4.28
2019-03-17T05:37:21.173Z,4.50
2019-03-17T05:39:50.001Z,3.75
2019-03-17T05:42:21.731Z,4.40
2019-03-17T05:44:50.721Z,4.85
2019-03-17T05:47:19.711Z,3.83
2019-03-17T05:49:48.704Z,4.58
2019-03-17T05:52:17.696Z,3.85
2019-03-17T05:54:46.690Z,3.72
2019-03-17T05:57:15.722Z,3.40
2019-03-17T05:59:44.704Z,4.05
2019-03-17T06:02:13.559Z,3.70
2019-03-17T06:04:42.454Z,3.58
2019-03-17T06:07:18.599Z,3.55
2019-03-17T06:09:41.878Z,3.85
2019-03-17T06:12:10.871Z,4.58
2019-03-17T06:14:39.865Z,3.47
2019-03-17T06:17:08.860Z,4.28
2019-03-17T06:19:37.849Z,2.95
2019-03-17T06:22:06.678Z,3.15
2019-03-17T06:24:35.517Z,3.92
2019-03-17T06:27:04.521Z,3.17
2019-03-17T06:29:33.514Z,3.20
2019-03-17T06:32:02.508Z,2.70
2019-03-17T06:34:31.393Z,3.25
2019-03-17T06:37:01.207Z,2.98
2019-03-17T06:39:30.200Z,2.80
2019-03-17T06:41:59.095Z,3.67
2019-03-17T06:44:28.087Z,3.58
2019-03-17T06:46:56.961Z,3.30
2019-03-17T06:49:25.865Z,3.72
2019-03-17T06:51:54.763Z,3.15
2019-03-17T06:54:23.753Z,4.35
2019-03-17T06:56:52.746Z,4.17
2019-03-17T06:59:21.739Z,4.10
2019-03-17T07:01:50.732Z,4.10
2019-03-17T07:04:19.726Z,4.60
2019-03-17T07:06:48.725Z,3.33
2019-03-17T07:09:17.711Z,3.10
2019-03-17T07:11:46.704Z,3.25
2019-03-17T07:14:15.697Z,3.20
2019-03-17T07:16:44.690Z,4.25
2019-03-17T07:19:13.577Z,4.62
2019-03-17T07:21:42.566Z,4.37
2019-03-17T07:24:11.461Z,4.58
2019-03-17T07:26:59.808Z,3.72
2019-03-17T07:29:28.702Z,5.20
2019-03-17T07:31:57.695Z,5.15
2019-03-17T07:34:26.669Z,5.30
2019-03-17T07:36:55.681Z,4.80
2019-03-17T07:39:25.571Z,4.47
2019-03-17T07:41:54.589Z,5.15
2019-03-17T07:44:23.587Z,4.30
2019-03-17T07:46:52.468Z,4.10
2019-03-17T07:49:21.362Z,3.95
2019-03-17T07:51:50.255Z,4.20
2019-03-17T07:54:19.337Z,4.22
2019-03-17T07:56:49.215Z,5.37
2019-03-17T07:59:18.157Z,4.08
2019-03-17T08:01:47.149Z,4.17
2019-03-17T08:04:16.034Z,4.12
2019-03-17T08:06:44.932Z,5.00
2019-03-17T08:09:13.836Z,5.05
2019-03-17T08:11:42.814Z,5.62
2019-03-17T08:14:11.698Z,5.10
2019-03-17T08:16:40.591Z,5.42
2019-03-17T08:19:09.486Z,5.10
2019-03-17T08:21:38.441Z,5.10
2019-03-17T08:24:07.278Z,4.47
2019-03-17T08:26:36.166Z,4.50
2019-03-17T08:29:05.202Z,4.75
2019-03-17T08:31:34.193Z,4.30
2019-03-17T08:34:03.024Z,4.10
2019-03-17T08:36:31.946Z,4.47
2019-03-17T08:39:00.863Z,3.95
2019-03-17T08:41:29.956Z,5.03
2019-03-17T08:43:58.850Z,4.83
2019-03-17T08:46:27.821Z,4.15
2019-03-17T08:48:56.680Z,3.83
2019-03-17T08:51:25.813Z,3.90
2019-03-17T08:53:54.852Z,3.67
2019-03-17T08:56:23.805Z,4.47
2019-03-17T08:58:52.812Z,3.75
2019-03-17T09:01:21.803Z,5.37
2019-03-17T09:03:50.799Z,3.83
2019-03-17T09:06:19.626Z,3.90
2019-03-17T09:08:48.580Z,5.03
2019-03-17T09:11:17.469Z,4.75
2019-03-17T09:13:46.462Z,4.87
2019-03-17T09:16:15.456Z,6.30
2019-03-17T09:18:44.329Z,4.45
2019-03-17T09:21:13.233Z,5.50
2019-03-17T09:23:42.794Z,4.25
2019-03-17T09:26:11.837Z,3.67
2019-03-17T09:28:40.727Z,4.85
2019-03-17T09:31:09.731Z,4.60
2019-03-17T09:33:38.716Z,4.58
2019-03-17T09:36:07.704Z,5.42
2019-03-17T09:38:46.730Z,4.72
2019-03-17T09:41:07.227Z,5.33
2019-03-17T09:43:36.221Z,4.53
2019-03-17T09:46:05.214Z,4.17
2019-03-17T09:48:34.202Z,3.67
2019-03-17T09:51:03.203Z,4.17
2019-03-17T09:53:32.194Z,4.67
2019-03-17T09:56:01.186Z,5.33
2019-03-17T09:58:30.055Z,4.20
2019-03-17T10:00:58.964Z,3.58
2019-03-17T10:03:27.858Z,3.37
2019-03-17T10:05:56.852Z,4.10
2019-03-17T10:08:25.845Z,12.25
2019-03-17T10:10:54.837Z,3.98
2019-03-17T10:13:23.830Z,3.35
2019-03-17T10:15:52.823Z,4.10
2019-03-17T10:18:21.672Z,3.95
2019-03-17T10:20:50.578Z,4.20
2019-03-17T10:23:19.426Z,3.90
2019-03-17T10:25:48.488Z,3.85
2019-03-17T10:28:17.481Z,5.12
2019-03-17T10:30:46.474Z,3.52
2019-03-17T10:33:15.474Z,4.25
2019-03-17T10:35:44.460Z,5.00
2019-03-17T10:38:13.298Z,4.50
2019-03-17T10:40:42.238Z,4.05
2019-03-17T10:43:11.449Z,4.40
2019-03-17T10:45:40.324Z,4.20
2019-03-17T10:48:09.430Z,3.60
2019-03-17T10:50:49.030Z,4.28
2019-03-17T10:53:08.953Z,4.58
2019-03-17T10:55:37.945Z,4.60
2019-03-17T10:58:06.939Z,7.40
2019-03-17T11:00:36.030Z,5.10
2019-03-17T11:03:04.904Z,5.65
2019-03-17T11:05:33.915Z,5.55
2019-03-17T11:08:03.034Z,4.40
2019-03-17T11:10:32.117Z,4.90
2019-03-17T11:13:01.095Z,5.78
2019-03-17T11:15:29.997Z,5.25
2019-03-17T11:18:00.260Z,4.95
2019-03-17T11:20:29.205Z,4.33
2019-03-17T11:22:58.204Z,5.03
2019-03-17T11:25:27.187Z,4.75
2019-03-17T11:27:56.083Z,5.33
2019-03-17T11:30:25.074Z,5.37
2019-03-17T11:32:54.068Z,7.65
2019-03-17T11:35:23.062Z,5.55
2019-03-17T11:37:52.054Z,6.37
2019-03-17T11:40:21.555Z,7.37
2019-03-17T11:42:51.716Z,5.37
2019-03-17T11:45:24.105Z,5.35
2019-03-17T11:47:52.845Z,5.78
2019-03-17T11:50:22.131Z,5.78
2019-03-17T11:52:51.435Z,5.78
2019-03-17T11:55:20.544Z,5.87
2019-03-17T11:57:49.527Z,6.37
2019-03-17T12:00:23.130Z,5.87
2019-03-17T12:02:52.122Z,6.62
2019-03-17T12:05:22.650Z,7.50
2019-03-17T12:07:51.645Z,7.30
2019-03-17T12:10:24.314Z,7.08
2019-03-17T12:12:53.316Z,7.90
2019-03-17T12:15:27.206Z,7.62
2019-03-17T12:17:56.218Z,7.58
2019-03-17T12:20:26.794Z,7.92
2019-03-17T12:22:55.740Z,8.23
2019-03-17T12:25:27.596Z,6.35
2019-03-17T12:27:56.491Z,7.50
2019-03-17T12:30:27.430Z,6.37
2019-03-17T12:32:56.605Z,6.33
2019-03-17T12:35:25.446Z,6.40
2019-03-17T12:37:54.407Z,7.08
2019-03-17T12:40:23.299Z,7.15
2019-03-17T12:42:53.803Z,8.88
2019-03-17T12:45:22.709Z,8.45
2019-03-17T12:47:52.528Z,8.15
2019-03-17T12:50:25.477Z,11.03
2019-03-17T12:52:54.411Z,9.10
2019-03-17T12:55:23.405Z,8.65
2019-03-17T12:57:52.396Z,8.58
2019-03-17T13:00:22.768Z,9.05
2019-03-17T13:02:52.113Z,8.98
2019-03-17T13:05:21.217Z,8.18
2019-03-17T13:07:50.211Z,9.25
2019-03-17T13:10:23.288Z,8.53
2019-03-17T13:12:52.289Z,9.88
2019-03-17T13:15:21.184Z,9.73
2019-03-17T13:17:50.177Z,13.55
2019-03-17T13:20:20.135Z,9.63
2019-03-17T13:22:48.982Z,9.20
2019-03-17T13:25:18.056Z,9.05
2019-03-17T13:27:47.073Z,9.05
2019-03-17T13:30:16.924Z,8.75
2019-03-17T13:32:45.979Z,9.53
2019-03-17T13:35:14.973Z,9.13
2019-03-17T13:37:44.063Z,9.58
2019-03-17T13:40:28.192Z,10.48
2019-03-17T13:42:47.581Z,9.98
2019-03-17T13:45:16.477Z,9.73
2019-03-17T13:47:45.468Z,9.85
2019-03-17T13:50:19.879Z,9.95
2019-03-17T13:52:48.981Z,9.83
2019-03-17T13:55:18.076Z,10.05
2019-03-17T13:58:01.559Z,9.85
2019-03-17T14:00:30.499Z,13.70
2019-03-17T14:02:59.393Z,12.23
2019-03-17T14:05:28.388Z,14.83
2019-03-17T14:07:57.380Z,13.68
2019-03-17T14:10:26.372Z,16.25
2019-03-17T14:12:55.369Z,14.40
2019-03-17T14:15:24.359Z,14.10
2019-03-17T14:17:53.352Z,16.15
2019-03-17T14:20:22.788Z,16.25
2019-03-17T14:22:51.739Z,14.95
2019-03-17T14:25:29.547Z,19.67
2019-03-17T14:27:58.540Z,17.25
2019-03-17T14:30:27.548Z,16.77
2019-03-17T14:32:58.066Z,16.57
2019-03-17T14:35:27.058Z,17.32
2019-03-17T14:37:56.052Z,17.67
2019-03-17T14:40:25.044Z,18.40
2019-03-17T14:42:55.509Z,18.82
2019-03-17T14:45:24.564Z,21.02
2019-03-17T14:47:53.449Z,20.55
2019-03-17T14:50:24.159Z,20.85
2019-03-17T14:52:53.085Z,21.23
2019-03-17T14:55:22.156Z,22.15
2019-03-17T14:57:51.075Z,21.62
2019-03-17T15:00:24.108Z,21.95
2019-03-17T15:02:53.044Z,21.05
2019-03-17T15:05:22.051Z,20.95
2019-03-17T15:07:50.864Z,22.65
2019-03-17T15:10:21.873Z,21.97
2019-03-17T15:12:50.861Z,22.58
2019-03-17T15:15:20.587Z,21.23
2019-03-17T15:17:49.660Z,20.62
2019-03-17T15:20:23.468Z,20.27
2019-03-17T15:22:52.362Z,21.95
2019-03-17T15:25:21.200Z,21.25
2019-03-17T15:27:50.141Z,22.07
2019-03-17T15:30:29.532Z,22.77
2019-03-17T15:32:58.472Z,23.18
2019-03-17T15:35:27.348Z,24.75
2019-03-17T15:37:56.356Z,24.20
2019-03-17T15:40:25.243Z,23.05
2019-03-17T15:42:54.115Z,21.82
2019-03-17T15:45:26.534Z,21.57
2019-03-17T15:50:29.770Z,22.73
2019-03-17T15:52:58.713Z,23.18
2019-03-17T15:55:27.552Z,21.82
2019-03-17T15:57:56.610Z,24.02
2019-03-17T16:00:28.765Z,23.98
2019-03-17T16:02:57.841Z,24.47
2019-03-17T16:05:27.140Z,23.45
2019-03-17T16:07:56.153Z,22.70
2019-03-17T16:10:26.325Z,26.02
2019-03-17T16:12:55.265Z,25.60
2019-03-17T16:15:24.093Z,26.25
2019-03-17T16:17:53.050Z,25.88
2019-03-17T16:20:22.748Z,26.80
2019-03-17T16:22:51.642Z,27.62
2019-03-17T16:25:32.597Z,27.13
2019-03-17T16:28:01.611Z,29.70
2019-03-17T16:30:31.889Z,28.57
2019-03-17T16:33:00.829Z,29.50
2019-03-17T16:35:29.917Z,30.20
2019-03-17T16:37:58.797Z,31.35
2019-03-17T16:40:32.820Z,32.80
2019-03-17T16:43:01.926Z,34.48
2019-03-17T16:45:30.803Z,33.80
2019-03-17T16:47:59.704Z,31.68
2019-03-17T16:50:34.741Z,30.23
2019-03-17T16:53:03.731Z,31.95
2019-03-17T16:55:32.632Z,30.75
2019-03-17T16:58:01.717Z,31.33
2019-03-17T17:00:30.712Z,30.12
2019-03-17T17:02:59.598Z,31.65
2019-03-17T17:05:28.577Z,29.10
2019-03-17T17:07:57.482Z,31.10
2019-03-17T17:10:27.690Z,31.80
2019-03-17T17:12:56.930Z,32.70
2019-03-17T17:15:27.563Z,33.45
2019-03-17T17:17:56.846Z,30.72
2019-03-17T17:20:33.610Z,31.20
2019-03-17T17:23:02.713Z,31.20
2019-03-17T17:25:31.703Z,32.15
2019-03-17T17:28:00.755Z,32.55
2019-03-17T17:30:32.456Z,30.57
2019-03-17T17:33:02.564Z,31.40
2019-03-17T17:35:31.613Z,32.48
2019-03-17T17:38:00.544Z,29.55
2019-03-17T17:40:29.434Z,33.20
2019-03-17T17:42:59.072Z,31.68
2019-03-17T17:45:47.592Z,32.40
2019-03-17T17:48:16.685Z,31.60
2019-03-17T17:50:45.784Z,31.90
2019-03-17T17:53:15.173Z,31.10
2019-03-17T17:55:45.303Z,30.17
2019-03-17T17:58:14.140Z,31.20
2019-03-17T18:00:44.832Z,32.63
2019-03-17T18:03:13.919Z,31.57
2019-03-17T18:05:42.910Z,31.02
2019-03-17T18:08:11.805Z,30.23
2019-03-17T18:10:40.632Z,31.20
2019-03-17T18:13:09.581Z,30.92
2019-03-17T18:15:38.575Z,31.45
2019-03-17T18:18:07.567Z,30.55
2019-03-17T18:20:36.464Z,30.30
2019-03-17T18:23:16.824Z,28.17
2019-03-17T18:25:36.084Z,29.30
2019-03-17T18:28:04.979Z,29.18
2019-03-17T18:30:33.823Z,32.60
2019-03-17T18:33:02.734Z,29.40
2019-03-17T18:35:31.771Z,27.98
2019-03-17T18:38:00.759Z,26.87
2019-03-17T18:40:29.637Z,30.68
2019-03-17T18:42:58.629Z,29.92
2019-03-17T18:45:32.543Z,28.85
2019-03-17T18:48:01.372Z,29.40
2019-03-17T18:50:30.332Z,30.35
2019-03-17T18:52:59.224Z,31.62
2019-03-17T18:55:28.208Z,30.17
2019-03-17T18:57:57.198Z,30.05
2019-03-17T19:00:26.826Z,33.98
2019-03-17T19:02:55.759Z,32.10
2019-03-17T19:05:24.639Z,29.98
2019-03-17T19:07:53.614Z,33.48
2019-03-17T19:10:25.837Z,30.12
2019-03-17T19:12:55.114Z,31.75
2019-03-17T19:15:24.206Z,30.77
2019-03-17T19:17:54.826Z,30.85
2019-03-17T19:20:24.457Z,33.48
2019-03-17T19:22:53.736Z,29.65
2019-03-17T19:25:24.689Z,29.77
2019-03-17T19:27:53.675Z,30.20
2019-03-17T19:30:23.339Z,32.15
2019-03-17T19:32:52.376Z,30.62
2019-03-17T19:35:29.876Z,33.53
2019-03-17T19:37:58.868Z,29.98
2019-03-17T19:40:28.857Z,27.87
2019-03-17T19:43:05.151Z,29.45
2019-03-17T19:45:36.080Z,29.75
2019-03-17T19:48:08.196Z,30.48
2019-03-17T19:50:37.143Z,29.20
2019-03-17T19:53:06.007Z,27.77
2019-03-17T19:55:40.639Z,30.20
2019-03-17T19:58:11.800Z,30.17
2019-03-17T20:00:42.259Z,31.25
2019-03-17T20:03:11.056Z,29.10
2019-03-17T20:05:40.007Z,32.78
2019-03-17T20:08:10.434Z,28.38
2019-03-17T20:10:39.429Z,29.52
2019-03-17T20:13:11.929Z,41.35
2019-03-17T20:15:41.611Z,30.85
2019-03-17T20:18:11.936Z,31.57
2019-03-17T20:20:41.876Z,31.25
2019-03-17T20:23:10.851Z,29.37
2019-03-17T20:25:40.069Z,34.13
2019-03-17T20:28:09.543Z,50.05
2019-03-17T20:30:38.637Z,48.25
2019-03-17T20:33:08.661Z,76.40
2019-03-17T20:35:37.654Z,71.72
2019-03-17T20:38:06.645Z,64.22
2019-03-17T20:40:35.639Z,42.40
2019-03-17T20:43:04.631Z,31.42
2019-03-17T20:45:33.626Z,31.95
2019-03-17T20:48:02.712Z,28.73
2019-03-17T20:50:31.711Z,31.12
2019-03-17T20:53:00.607Z,28.77
2019-03-17T20:55:29.600Z,29.35
2019-03-17T20:57:58.591Z,30.40
2019-03-17T21:00:27.689Z,28.77
2019-03-17T21:02:56.677Z,30.92
2019-03-17T21:05:25.762Z,29.07
2019-03-17T21:07:55.824Z,29.20
2019-03-17T21:10:24.795Z,44.58
2019-03-17T21:12:53.896Z,55.63
2019-03-17T21:15:22.974Z,103.05
2019-03-17T21:17:53.626Z,63.68
2019-03-17T21:20:24.983Z,71.97
2019-03-17T21:22:54.159Z,74.25
2019-03-17T21:25:23.044Z,73.45
2019-03-17T21:27:51.928Z,75.60
2019-03-17T21:30:29.402Z,60.33
2019-03-17T21:32:58.395Z,85.77
2019-03-17T21:35:27.311Z,56.28
2019-03-17T21:37:56.196Z,46.80
2019-03-17T21:40:25.073Z,52.60
2019-03-17T21:42:54.009Z,46.90
2019-03-17T21:45:22.977Z,41.90
2019-03-17T21:47:51.970Z,49.25
2019-03-17T21:50:21.395Z,53.00
2019-03-17T21:52:50.411Z,46.60
2019-03-17T21:55:19.347Z,50.83
2019-03-17T21:57:48.250Z,43.60
2019-03-17T22:00:18.283Z,43.40
2019-03-17T22:02:48.150Z,43.08
2019-03-17T22:05:17.396Z,45.10
2019-03-17T22:07:50.872Z,44.60
2019-03-17T22:10:18.106Z,44.33
2019-03-17T22:12:47.128Z,43.13
2019-03-17T22:15:17.169Z,44.15
2019-03-17T22:17:46.222Z,45.30
2019-03-17T22:20:15.835Z,45.88
2019-03-17T22:22:45.016Z,43.42
2019-03-17T22:25:14.871Z,42.30
2019-03-17T22:27:43.851Z,40.05
2019-03-17T22:30:20.622Z,38.70
2019-03-17T22:32:49.613Z,41.42
2019-03-17T22:35:18.614Z,40.85
2019-03-17T22:37:47.501Z,42.55
2019-03-17T22:40:19.713Z,40.30
2019-03-17T22:42:48.657Z,35.78
2019-03-17T22:45:17.983Z,37.00
2019-03-17T22:47:46.951Z,35.55
2019-03-17T22:50:19.530Z,34.00
2019-03-17T22:52:48.522Z,32.05
2019-03-17T22:55:17.617Z,24.52
2019-03-17T22:57:46.511Z,25.50
2019-03-17T23:00:33.935Z,20.15
2019-03-17T23:03:04.542Z,12.82
2019-03-17T23:05:33.585Z,7.70
2019-03-17T23:08:02.757Z,6.83
2019-03-17T23:10:31.759Z,4.47
2019-03-17T23:13:00.743Z,6.75
2019-03-17T23:15:29.809Z,8.58
2019-03-17T23:17:58.810Z,7.83
2019-03-17T23:20:27.723Z,11.93
2019-03-17T23:22:56.716Z,16.48
2019-03-17T23:25:25.708Z,12.58
2019-03-17T23:27:54.632Z,12.10
2019-03-17T23:30:23.694Z,13.32
2019-03-17T23:32:52.693Z,12.20
2019-03-17T23:35:21.682Z,10.65
2019-03-17T23:37:50.675Z,11.95
2019-03-17T23:40:19.673Z,9.50
2019-03-17T23:42:48.550Z,7.50
2019-03-17T23:45:17.546Z,5.03
2019-03-17T23:47:46.437Z,4.03
2019-03-17T23:50:15.964Z,4.30
2019-03-17T23:52:44.943Z,2.45
2019-03-17T23:55:15.260Z,2.47
2019-03-17T23:57:44.154Z,2.33
